sensor_id;sensor_type;location;lat;lon;timestamp;pressure;altitude;pressure_sealevel;temperature;humidity
58775;BME280;44545;47.480;19.024;2022-11-02T04:10:36;100785.28;;;9.94;100.00
58775;BME280;44545;47.480;19.024;2022-11-02T04:14:00;100790.91;;;9.87;100.00
58775;BME280;44545;47.480;19.024;2022-11-02T04:17:20;100797.94;;;9.88;100.00
58775;BME280;44545;47.480;19.024;2022-11-02T04:20:42;100804.22;;;9.91;100.00
58775;BME280;44545;47.480;19.024;2022-11-02T04:23:44;100806.31;;;9.97;100.00
58775;BME280;44545;47.480;19.024;2022-11-02T04:27:05;100817.84;;;10.01;100.00
58775;BME280;44545;47.480;19.024;2022-11-02T04:30:07;100820.63;;;10.04;100.00
58775;BME280;44545;47.480;19.024;2022-11-02T04:33:11;100818.84;;;10.03;100.00
58775;BME280;44545;47.480;19.024;2022-11-02T04:36:32;100820.28;;;10.12;100.00
58775;BME280;44545;47.480;19.024;2022-11-02T04:39:35;100814.59;;;10.18;100.00
58775;BME280;44545;47.480;19.024;2022-11-02T04:42:37;100818.88;;;10.17;100.00
58775;BME280;44545;47.480;19.024;2022-11-02T04:45:39;100822.12;;;10.13;100.00
58775;BME280;44545;47.480;19.024;2022-11-02T04:48:42;100826.94;;;10.07;100.00
58775;BME280;44545;47.480;19.024;2022-11-02T04:51:45;100825.44;;;10.11;100.00
58775;BME280;44545;47.480;19.024;2022-11-02T04:54:51;100833.09;;;10.23;100.00
58775;BME280;44545;47.480;19.024;2022-11-02T04:57:54;100823.09;;;10.29;100.00
58775;BME280;44545;47.480;19.024;2022-11-02T05:00:57;100837.16;;;10.31;100.00
58775;BME280;44545;47.480;19.024;2022-11-02T05:03:59;100825.38;;;10.37;100.00
58775;BME280;44545;47.480;19.024;2022-11-02T05:07:02;100826.25;;;10.38;100.00
58775;BME280;44545;47.480;19.024;2022-11-02T05:10:08;100837.03;;;10.29;100.00
58775;BME280;44545;47.480;19.024;2022-11-02T05:13:10;100836.72;;;10.25;100.00
58775;BME280;44545;47.480;19.024;2022-11-02T05:16:14;100830.16;;;10.45;100.00
58775;BME280;44545;47.480;19.024;2022-11-02T05:19:17;100821.53;;;10.46;100.00
58775;BME280;44545;47.480;19.024;2022-11-02T05:22:20;100822.44;;;10.46;100.00
58775;BME280;44545;47.480;19.024;2022-11-02T05:25:22;100820.50;;;10.57;100.00
58775;BME280;44545;47.480;19.024;2022-11-02T05:28:26;100820.37;;;10.55;100.00
58775;BME280;44545;47.480;19.024;2022-11-02T05:31:28;100830.56;;;10.66;100.00
58775;BME280;44545;47.480;19.024;2022-11-02T05:34:31;100832.00;;;10.60;100.00
58775;BME280;44545;47.480;19.024;2022-11-02T05:37:33;100836.09;;;10.42;100.00
58775;BME280;44545;47.480;19.024;2022-11-02T05:40:36;100845.94;;;10.33;100.00
58775;BME280;44545;47.480;19.024;2022-11-02T05:43:41;100848.34;;;10.30;100.00
58775;BME280;44545;47.480;19.024;2022-11-02T05:46:44;100843.31;;;10.33;100.00
58775;BME280;44545;47.480;19.024;2022-11-02T05:49:46;100826.75;;;10.46;100.00
58775;BME280;44545;47.480;19.024;2022-11-02T05:52:48;100830.34;;;10.48;100.00
58775;BME280;44545;47.480;19.024;2022-11-02T05:55:51;100832.97;;;10.48;100.00
58775;BME280;44545;47.480;19.024;2022-11-02T05:58:54;100839.41;;;10.39;100.00
58775;BME280;44545;47.480;19.024;2022-11-02T06:01:56;100832.47;;;10.53;100.00
58775;BME280;44545;47.480;19.024;2022-11-02T06:04:59;100827.72;;;10.61;100.00
58775;BME280;44545;47.480;19.024;2022-11-02T06:08:01;100835.72;;;10.64;100.00
58775;BME280;44545;47.480;19.024;2022-11-02T06:11:05;100834.81;;;10.63;100.00
58775;BME280;44545;47.480;19.024;2022-11-02T06:14:07;100830.37;;;10.62;100.00
58775;BME280;44545;47.480;19.024;2022-11-02T06:17:09;100836.38;;;10.75;100.00
58775;BME280;44545;47.480;19.024;2022-11-02T06:20:12;100831.84;;;10.72;100.00
58775;BME280;44545;47.480;19.024;2022-11-02T06:23:14;100827.94;;;10.79;100.00
58775;BME280;44545;47.480;19.024;2022-11-02T06:26:18;100822.88;;;10.82;100.00
58775;BME280;44545;47.480;19.024;2022-11-02T06:29:21;100830.06;;;10.86;100.00
58775;BME280;44545;47.480;19.024;2022-11-02T06:32:23;100834.34;;;10.99;100.00
58775;BME280;44545;47.480;19.024;2022-11-02T06:35:26;100832.91;;;11.04;100.00
58775;BME280;44545;47.480;19.024;2022-11-02T06:38:28;100831.19;;;11.04;100.00
58775;BME280;44545;47.480;19.024;2022-11-02T06:41:30;100834.53;;;11.02;100.00
58775;BME280;44545;47.480;19.024;2022-11-02T06:44:32;100845.41;;;11.10;100.00
58775;BME280;44545;47.480;19.024;2022-11-02T06:47:35;100845.03;;;11.03;100.00
58775;BME280;44545;47.480;19.024;2022-11-02T06:50:39;100861.22;;;10.98;100.00
58775;BME280;44545;47.480;19.024;2022-11-02T06:53:41;100868.97;;;10.96;100.00
58775;BME280;44545;47.480;19.024;2022-11-02T06:56:43;100868.41;;;10.87;100.00
58775;BME280;44545;47.480;19.024;2022-11-02T06:59:45;100874.63;;;10.89;100.00
58775;BME280;44545;47.480;19.024;2022-11-02T07:03:06;100867.87;;;10.93;100.00
58775;BME280;44545;47.480;19.024;2022-11-02T07:06:09;100872.56;;;10.98;100.00
58775;BME280;44545;47.480;19.024;2022-11-02T07:09:16;100868.97;;;11.11;100.00
58775;BME280;44545;47.480;19.024;2022-11-02T07:12:18;100871.59;;;11.26;100.00
58775;BME280;44545;47.480;19.024;2022-11-02T07:15:25;100872.59;;;11.28;100.00
58775;BME280;44545;47.480;19.024;2022-11-02T07:18:27;100868.91;;;11.24;100.00
58775;BME280;44545;47.480;19.024;2022-11-02T07:21:29;100873.12;;;11.22;100.00
58775;BME280;44545;47.480;19.024;2022-11-02T07:24:32;100872.44;;;11.25;100.00
58775;BME280;44545;47.480;19.024;2022-11-02T07:27:38;100865.66;;;11.28;100.00
58775;BME280;44545;47.480;19.024;2022-11-02T07:30:40;100861.88;;;11.38;100.00
58775;BME280;44545;47.480;19.024;2022-11-02T07:33:42;100859.59;;;11.59;100.00
58775;BME280;44545;47.480;19.024;2022-11-02T07:36:45;100861.56;;;11.78;100.00
58775;BME280;44545;47.480;19.024;2022-11-02T07:39:47;100866.63;;;11.90;100.00
58775;BME280;44545;47.480;19.024;2022-11-02T07:42:50;100872.34;;;12.30;100.00
58775;BME280;44545;47.480;19.024;2022-11-02T07:45:55;100875.50;;;12.72;100.00
58775;BME280;44545;47.480;19.024;2022-11-02T07:48:57;100877.87;;;13.00;100.00
58775;BME280;44545;47.480;19.024;2022-11-02T07:51:59;100884.03;;;13.19;100.00
58775;BME280;44545;47.480;19.024;2022-11-02T07:55:02;100879.75;;;13.19;100.00
58775;BME280;44545;47.480;19.024;2022-11-02T07:58:07;100877.25;;;13.39;100.00
58775;BME280;44545;47.480;19.024;2022-11-02T08:01:10;100869.62;;;13.43;100.00
58775;BME280;44545;47.480;19.024;2022-11-02T08:04:12;100865.72;;;13.19;100.00
58775;BME280;44545;47.480;19.024;2022-11-02T08:07:15;100875.53;;;12.89;100.00
58775;BME280;44545;47.480;19.024;2022-11-02T08:10:18;100869.28;;;13.03;100.00
58775;BME280;44545;47.480;19.024;2022-11-02T08:13:23;100870.41;;;13.25;100.00
58775;BME280;44545;47.480;19.024;2022-11-02T08:16:27;100870.53;;;13.62;100.00
58775;BME280;44545;47.480;19.024;2022-11-02T08:19:30;100867.94;;;13.98;100.00
58775;BME280;44545;47.480;19.024;2022-11-02T08:22:37;100863.84;;;13.85;100.00
58775;BME280;44545;47.480;19.024;2022-11-02T08:25:40;100864.09;;;14.09;100.00
58775;BME280;44545;47.480;19.024;2022-11-02T08:28:43;100874.50;;;14.07;100.00
58775;BME280;44545;47.480;19.024;2022-11-02T08:31:46;100873.78;;;13.92;100.00
58775;BME280;44545;47.480;19.024;2022-11-02T08:34:48;100871.47;;;13.80;100.00
58775;BME280;44545;47.480;19.024;2022-11-02T08:37:54;100872.50;;;13.84;100.00
58775;BME280;44545;47.480;19.024;2022-11-02T08:40:57;100876.09;;;13.86;100.00
58775;BME280;44545;47.480;19.024;2022-11-02T08:43:59;100877.37;;;13.94;100.00
58775;BME280;44545;47.480;19.024;2022-11-02T08:47:01;100867.44;;;14.24;100.00
58775;BME280;44545;47.480;19.024;2022-11-02T08:50:10;100861.13;;;14.39;99.73
58775;BME280;44545;47.480;19.024;2022-11-02T08:53:12;100860.16;;;14.37;98.91
58775;BME280;44545;47.480;19.024;2022-11-02T08:56:14;100866.88;;;14.12;100.00
58775;BME280;44545;47.480;19.024;2022-11-02T08:59:17;100862.88;;;14.20;100.00
58775;BME280;44545;47.480;19.024;2022-11-02T09:02:19;100852.97;;;14.32;99.84
58775;BME280;44545;47.480;19.024;2022-11-02T09:05:22;100865.81;;;14.64;98.09
58775;BME280;44545;47.480;19.024;2022-11-02T09:08:24;100853.44;;;15.21;94.85
58775;BME280;44545;47.480;19.024;2022-11-02T09:11:28;100849.75;;;15.58;92.40
58775;BME280;44545;47.480;19.024;2022-11-02T09:14:30;100841.22;;;15.85;90.62
58775;BME280;44545;47.480;19.024;2022-11-02T09:17:33;100842.69;;;15.99;90.15
58775;BME280;44545;47.480;19.024;2022-11-02T09:20:35;100842.22;;;16.32;89.21
58775;BME280;44545;47.480;19.024;2022-11-02T09:23:38;100847.97;;;16.45;87.05
58775;BME280;44545;47.480;19.024;2022-11-02T09:26:40;100841.72;;;16.19;88.08
58775;BME280;44545;47.480;19.024;2022-11-02T09:29:42;100844.63;;;16.03;89.57
58775;BME280;44545;47.480;19.024;2022-11-02T09:32:55;100848.97;;;15.80;89.86
58775;BME280;44545;47.480;19.024;2022-11-02T09:36:01;100843.84;;;16.52;87.35
58775;BME280;44545;47.480;19.024;2022-11-02T09:39:03;100833.78;;;16.88;84.70
58775;BME280;44545;47.480;19.024;2022-11-02T09:42:24;100834.13;;;16.98;83.62
58775;BME280;44545;47.480;19.024;2022-11-02T09:45:35;100834.31;;;16.78;84.51
58775;BME280;44545;47.480;19.024;2022-11-02T09:48:51;100832.69;;;16.82;85.20
58775;BME280;44545;47.480;19.024;2022-11-02T09:51:57;100829.66;;;17.21;82.60
58775;BME280;44545;47.480;19.024;2022-11-02T09:55:11;100830.09;;;16.59;84.86
58775;BME280;44545;47.480;19.024;2022-11-02T09:58:18;100832.72;;;17.07;84.22
58775;BME280;44545;47.480;19.024;2022-11-02T10:15:04;100825.31;;;16.49;86.66
58775;BME280;44545;47.480;19.024;2022-11-02T10:18:18;100826.09;;;16.71;85.34
58775;BME280;44545;47.480;19.024;2022-11-02T10:21:31;100827.37;;;17.31;83.32
58775;BME280;44545;47.480;19.024;2022-11-02T10:24:39;100830.41;;;17.42;83.11
58775;BME280;44545;47.480;19.024;2022-11-02T10:27:46;100824.88;;;17.35;81.68
58775;BME280;44545;47.480;19.024;2022-11-02T10:30:51;100834.59;;;17.11;83.88
58775;BME280;44545;47.480;19.024;2022-11-02T10:33:56;100827.88;;;17.45;81.39
58775;BME280;44545;47.480;19.024;2022-11-02T10:52:50;100790.25;;;29.68;38.41
58775;BME280;44545;47.480;19.024;2022-11-02T10:56:00;100788.28;;;30.24;35.85
58775;BME280;44545;47.480;19.024;2022-11-02T10:59:10;100788.97;;;31.86;32.14
58775;BME280;44545;47.480;19.024;2022-11-02T11:02:13;100783.47;;;33.39;29.17
58775;BME280;44545;47.480;19.024;2022-11-02T11:05:18;100777.44;;;35.68;26.15
58775;BME280;44545;47.480;19.024;2022-11-02T11:08:43;100774.34;;;37.67;22.41
58775;BME280;44545;47.480;19.024;2022-11-02T11:11:55;100779.44;;;33.78;26.86
58775;BME280;44545;47.480;19.024;2022-11-02T11:15:00;100786.72;;;27.54;36.94
58775;BME280;44545;47.480;19.024;2022-11-02T11:18:23;100787.06;;;23.91;45.95
58775;BME280;44545;47.480;19.024;2022-11-02T11:21:46;100795.41;;;22.43;50.46
58775;BME280;44545;47.480;19.024;2022-11-02T11:24:50;100785.56;;;21.75;53.58
58775;BME280;44545;47.480;19.024;2022-11-02T11:27:55;100787.16;;;21.12;55.57
58775;BME280;44545;47.480;19.024;2022-11-02T11:34:22;100795.97;;;20.23;60.08
58775;BME280;44545;47.480;19.024;2022-11-02T11:37:26;100803.19;;;20.71;59.22
58775;BME280;44545;47.480;19.024;2022-11-02T11:40:35;100793.25;;;21.58;56.11
58775;BME280;44545;47.480;19.024;2022-11-02T11:43:38;100788.88;;;22.20;54.42
58775;BME280;44545;47.480;19.024;2022-11-02T11:46:54;100796.41;;;20.87;58.40
58775;BME280;44545;47.480;19.024;2022-11-02T11:50:00;100796.25;;;21.28;56.93
58775;BME280;44545;47.480;19.024;2022-11-02T11:53:23;100789.41;;;21.39;56.12
58775;BME280;44545;47.480;19.024;2022-11-02T11:56:26;100787.34;;;21.23;57.61
58775;BME280;44545;47.480;19.024;2022-11-02T11:59:43;100792.78;;;20.82;59.80
58775;BME280;44545;47.480;19.024;2022-11-02T12:03:01;100784.16;;;20.50;59.90
58775;BME280;44545;47.480;19.024;2022-11-02T12:09:57;100767.06;;;19.20;64.85
58775;BME280;44545;47.480;19.024;2022-11-02T12:13:17;100762.03;;;18.65;66.57
58775;BME280;44545;47.480;19.024;2022-11-02T12:20:00;100759.13;;;18.55;67.11
58775;BME280;44545;47.480;19.024;2022-11-02T12:53:49;100730.59;;;19.80;61.35
58775;BME280;44545;47.480;19.024;2022-11-02T12:56:54;100726.28;;;19.85;60.59
58775;BME280;44545;47.480;19.024;2022-11-02T13:00:00;100726.03;;;19.73;59.99
58775;BME280;44545;47.480;19.024;2022-11-02T13:03:32;100719.34;;;19.52;61.70
58775;BME280;44545;47.480;19.024;2022-11-02T13:06:40;100720.16;;;19.48;63.87
58775;BME280;44545;47.480;19.024;2022-11-02T13:09:58;100731.13;;;19.28;65.07
58775;BME280;44545;47.480;19.024;2022-11-02T13:13:02;100724.63;;;18.79;66.20
58775;BME280;44545;47.480;19.024;2022-11-02T13:16:08;100727.84;;;18.69;67.30
58775;BME280;44545;47.480;19.024;2022-11-02T13:19:13;100724.59;;;18.48;69.23
58775;BME280;44545;47.480;19.024;2022-11-02T13:22:19;100720.09;;;18.44;67.52
58775;BME280;44545;47.480;19.024;2022-11-02T13:25:30;100723.19;;;18.60;71.26
58775;BME280;44545;47.480;19.024;2022-11-02T13:28:40;100721.06;;;18.47;69.69
58775;BME280;44545;47.480;19.024;2022-11-02T13:31:49;100720.19;;;18.47;67.59
58775;BME280;44545;47.480;19.024;2022-11-02T13:34:53;100724.34;;;18.38;67.22
58775;BME280;44545;47.480;19.024;2022-11-02T13:38:02;100724.00;;;18.26;68.68
58775;BME280;44545;47.480;19.024;2022-11-02T13:51:15;100726.91;;;17.76;69.92
58775;BME280;44545;47.480;19.024;2022-11-02T13:54:26;100737.03;;;17.63;71.32
58775;BME280;44545;47.480;19.024;2022-11-02T13:57:35;100730.50;;;17.51;72.75
58775;BME280;44545;47.480;19.024;2022-11-02T14:00:44;100726.66;;;17.40;72.64
58775;BME280;44545;47.480;19.024;2022-11-02T14:03:50;100740.06;;;17.21;75.47
58775;BME280;44545;47.480;19.024;2022-11-02T14:07:00;100744.38;;;16.92;79.21
58775;BME280;44545;47.480;19.024;2022-11-02T14:10:14;100744.84;;;16.80;80.66
58775;BME280;44545;47.480;19.024;2022-11-02T14:16:56;100747.62;;;16.60;72.08
58775;BME280;44545;47.480;19.024;2022-11-02T14:19:59;100746.91;;;16.64;70.95
58775;BME280;44545;47.480;19.024;2022-11-02T14:26:30;100740.00;;;16.20;71.93
58775;BME280;44545;47.480;19.024;2022-11-02T14:33:01;100744.66;;;15.80;72.84
58775;BME280;44545;47.480;19.024;2022-11-02T14:42:41;100751.34;;;15.51;72.26
58775;BME280;44545;47.480;19.024;2022-11-02T14:49:17;100747.53;;;15.66;69.73
58775;BME280;44545;47.480;19.024;2022-11-02T14:52:26;100757.06;;;15.85;69.66
58775;BME280;44545;47.480;19.024;2022-11-02T14:55:32;100755.06;;;15.77;71.34
58775;BME280;44545;47.480;19.024;2022-11-02T14:58:40;100749.56;;;15.71;72.49
58775;BME280;44545;47.480;19.024;2022-11-02T15:01:56;100758.94;;;15.87;69.57
58775;BME280;44545;47.480;19.024;2022-11-02T15:05:02;100760.53;;;16.06;69.42
58775;BME280;44545;47.480;19.024;2022-11-02T15:08:30;100756.66;;;15.96;70.33
58775;BME280;44545;47.480;19.024;2022-11-02T15:17:52;100761.56;;;15.44;75.44
58775;BME280;44545;47.480;19.024;2022-11-02T15:24:16;100762.31;;;15.41;75.79
58775;BME280;44545;47.480;19.024;2022-11-02T15:27:20;100767.53;;;15.39;76.72
58775;BME280;44545;47.480;19.024;2022-11-02T15:30:23;100768.13;;;15.32;76.78
58775;BME280;44545;47.480;19.024;2022-11-02T15:33:44;100767.03;;;15.27;78.09
58775;BME280;44545;47.480;19.024;2022-11-02T15:36:47;100780.75;;;15.20;79.05
58775;BME280;44545;47.480;19.024;2022-11-02T15:39:57;100783.25;;;15.17;79.52
58775;BME280;44545;47.480;19.024;2022-11-02T15:43:12;100778.56;;;15.10;79.51
58775;BME280;44545;47.480;19.024;2022-11-02T15:53:38;100783.69;;;15.07;82.49
58775;BME280;44545;47.480;19.024;2022-11-02T16:00:20;100786.34;;;14.87;84.69
58775;BME280;44545;47.480;19.024;2022-11-02T16:03:26;100777.72;;;14.70;86.22
58775;BME280;44545;47.480;19.024;2022-11-02T16:06:30;100780.53;;;14.54;87.35
58775;BME280;44545;47.480;19.024;2022-11-02T16:09:37;100788.34;;;14.35;88.24
58775;BME280;44545;47.480;19.024;2022-11-02T16:12:40;100777.78;;;14.14;88.75
58775;BME280;44545;47.480;19.024;2022-11-02T16:15:47;100777.06;;;13.98;90.00
